createdAt,value
2023-04-19T00:00:09.563Z,46.01
2023-04-19T00:02:41.590Z,45.87
2023-04-19T00:05:12.147Z,46.12
2023-04-19T00:07:40.582Z,46.33
2023-04-19T00:10:09.625Z,46.48
2023-04-19T00:12:38.777Z,46.67
2023-04-19T00:15:07.671Z,46.86
2023-04-19T00:17:36.489Z,46.84
2023-04-19T00:20:06.102Z,46.86
2023-04-19T00:22:35.096Z,47.08
2023-04-19T00:25:03.226Z,47.23
2023-04-19T00:27:31.540Z,47.49
2023-04-19T00:30:01.866Z,47.75
2023-04-19T00:32:30.530Z,47.88
2023-04-19T00:34:59.147Z,47.99
2023-04-19T00:37:27.327Z,48.08
2023-04-19T00:39:55.477Z,48.32
2023-04-19T00:42:23.688Z,48.45
2023-04-19T00:44:51.767Z,48.53
2023-04-19T00:47:19.948Z,48.61
2023-04-19T00:49:48.331Z,48.47
2023-04-19T00:52:17.733Z,48.48
2023-04-19T00:54:46.120Z,48.42
2023-04-19T00:57:15.760Z,48.47
2023-04-19T00:59:44.009Z,48.44
2023-04-19T01:02:13.005Z,48.44
2023-04-19T01:04:41.287Z,48.32
2023-04-19T01:07:09.499Z,48.24
2023-04-19T01:09:41.438Z,48.28
2023-04-19T01:12:09.609Z,47.82
2023-04-19T01:14:38.407Z,47.95
2023-04-19T01:17:07.721Z,47.97
2023-04-19T01:19:36.931Z,47.97
2023-04-19T01:22:06.641Z,48.03
2023-04-19T01:24:34.899Z,48.04
2023-04-19T01:27:03.731Z,48.04
2023-04-19T01:29:31.993Z,48.04
2023-04-19T01:32:00.060Z,48.12
2023-04-19T01:34:28.950Z,48.21
2023-04-19T01:36:58.176Z,48.28
2023-04-19T01:39:26.641Z,48.37
2023-04-19T01:41:54.911Z,48.50
2023-04-19T01:44:23.211Z,48.61
2023-04-19T01:46:51.310Z,48.63
2023-04-19T01:49:19.494Z,48.61
2023-04-19T01:51:47.773Z,48.70
2023-04-19T01:54:16.105Z,48.83
2023-04-19T01:56:44.514Z,48.84
2023-04-19T01:59:12.581Z,48.78
2023-04-19T02:01:41.355Z,48.88
2023-04-19T02:04:10.709Z,48.85
2023-04-19T02:06:38.799Z,48.89
2023-04-19T02:09:07.041Z,48.99
2023-04-19T02:11:35.535Z,49.07
2023-04-19T02:14:03.827Z,49.30
2023-04-19T02:16:33.813Z,49.52
2023-04-19T02:19:03.620Z,49.80
2023-04-19T02:21:32.326Z,49.98
2023-04-19T02:24:01.287Z,50.12
2023-04-19T02:26:29.656Z,50.10
2023-04-19T02:28:57.713Z,50.35
2023-04-19T02:31:25.985Z,50.55
2023-04-19T02:33:54.365Z,50.89
2023-04-19T02:36:22.677Z,51.07
2023-04-19T02:38:53.174Z,51.33
2023-04-19T02:41:21.772Z,51.58
2023-04-19T02:43:49.963Z,51.93
2023-04-19T02:46:18.142Z,52.05
2023-04-19T02:48:46.549Z,52.12
2023-04-19T02:51:17.907Z,52.16
2023-04-19T02:53:45.996Z,52.31
2023-04-19T02:56:14.116Z,52.51
2023-04-19T02:58:42.230Z,52.67
2023-04-19T03:01:10.444Z,52.81
2023-04-19T03:03:38.875Z,52.99
2023-04-19T03:06:07.241Z,52.94
2023-04-19T03:08:36.451Z,52.66
2023-04-19T03:11:05.511Z,52.59
2023-04-19T03:13:33.965Z,52.50
2023-04-19T03:16:02.119Z,52.64
2023-04-19T03:18:32.034Z,52.28
2023-04-19T03:21:01.376Z,51.98
2023-04-19T03:23:31.544Z,51.59
2023-04-19T03:26:01.336Z,51.60
2023-04-19T03:28:39.888Z,51.81
2023-04-19T03:31:30.991Z,51.68
2023-04-19T03:33:59.701Z,51.78
2023-04-19T03:36:31.225Z,51.63
2023-04-19T03:38:59.242Z,51.45
2023-04-19T03:41:28.169Z,51.37
2023-04-19T03:44:22.167Z,51.45
2023-04-19T03:46:50.436Z,51.49
2023-04-19T03:49:22.298Z,51.40
2023-04-19T03:51:55.800Z,51.56
2023-04-19T03:54:23.975Z,51.51
2023-04-19T03:56:52.042Z,51.25
2023-04-19T03:59:20.129Z,50.97
2023-04-19T04:01:48.500Z,50.96
2023-04-19T04:04:17.137Z,51.24
2023-04-19T04:06:45.925Z,51.45
2023-04-19T04:09:14.700Z,51.33
2023-04-19T04:11:42.912Z,51.44
2023-04-19T04:14:11.564Z,51.48
2023-04-19T04:16:40.155Z,51.65
2023-04-19T04:19:08.952Z,51.43
2023-04-19T04:21:39.369Z,51.24
2023-04-19T04:24:08.125Z,51.24
2023-04-19T04:26:58.089Z,51.27
2023-04-19T04:29:29.754Z,51.41
2023-04-19T04:32:00.073Z,51.27
2023-04-19T04:34:33.243Z,51.35
2023-04-19T04:37:09.083Z,51.35
2023-04-19T04:39:40.018Z,50.84
2023-04-19T04:42:09.176Z,50.76
2023-04-19T04:44:37.475Z,50.43
2023-04-19T04:47:05.780Z,49.98
2023-04-19T04:49:38.700Z,49.36
2023-04-19T04:52:08.827Z,49.39
2023-04-19T04:54:42.456Z,49.30
2023-04-19T04:57:18.787Z,49.26
2023-04-19T04:59:48.507Z,49.26
2023-04-19T05:02:21.108Z,48.99
2023-04-19T05:04:49.837Z,48.66
2023-04-19T05:07:17.918Z,48.34
2023-04-19T05:09:46.506Z,48.38
2023-04-19T05:12:15.757Z,48.14
2023-04-19T05:14:43.961Z,47.80
2023-04-19T05:17:12.129Z,47.56
2023-04-19T05:19:40.298Z,47.15
2023-04-19T05:22:08.580Z,46.58
2023-04-19T05:24:38.009Z,46.05
2023-04-19T05:27:06.918Z,46.17
2023-04-19T05:29:35.078Z,45.95
2023-04-19T05:32:03.176Z,45.67
2023-04-19T05:34:34.953Z,45.59
2023-04-19T05:37:04.034Z,45.87
2023-04-19T05:39:32.268Z,46.16
2023-04-19T05:42:00.719Z,46.08
2023-04-19T05:44:30.257Z,46.02
2023-04-19T05:46:58.390Z,46.32
2023-04-19T05:49:51.417Z,46.20
2023-04-19T05:52:31.894Z,45.63
2023-04-19T05:55:01.825Z,44.45
2023-04-19T05:57:31.078Z,42.97
2023-04-19T06:02:41.755Z,39.34
2023-04-19T06:05:12.602Z,38.46
2023-04-19T06:07:47.263Z,37.74
2023-04-19T06:10:23.851Z,37.11
2023-04-19T06:12:52.089Z,36.17
2023-04-19T06:15:21.041Z,35.30
2023-04-19T06:17:49.432Z,34.55
2023-04-19T06:20:17.613Z,32.78
2023-04-19T06:22:46.032Z,31.75
2023-04-19T06:25:15.235Z,29.41
2023-04-19T06:27:43.420Z,28.21
2023-04-19T06:30:11.703Z,26.77
2023-04-19T06:32:39.996Z,25.08
2023-04-19T06:35:10.942Z,24.01
2023-04-19T06:37:39.315Z,23.06
2023-04-19T06:40:08.739Z,22.36
2023-04-19T06:42:38.041Z,21.79
2023-04-19T06:45:08.756Z,21.02
2023-04-19T06:47:37.374Z,20.22
2023-04-19T06:50:06.587Z,19.57
2023-04-19T06:52:34.993Z,19.20
2023-04-19T06:55:03.152Z,18.72
2023-04-19T06:57:31.368Z,18.40
2023-04-19T06:59:59.674Z,18.17
2023-04-19T07:02:28.488Z,17.84
2023-04-19T07:04:57.159Z,17.85
2023-04-19T07:07:25.444Z,17.76
2023-04-19T07:09:53.514Z,17.91
2023-04-19T07:12:21.832Z,18.57
2023-04-19T07:14:49.871Z,18.96
2023-04-19T07:17:18.878Z,19.30
2023-04-19T07:19:49.988Z,19.19
2023-04-19T07:22:18.198Z,19.40
2023-04-19T07:24:46.510Z,19.44
2023-04-19T07:27:14.976Z,19.53
2023-04-19T07:29:43.203Z,19.84
2023-04-19T07:32:12.493Z,20.24
2023-04-19T07:34:41.546Z,20.32
2023-04-19T07:37:09.726Z,20.28
2023-04-19T07:39:38.158Z,20.06
2023-04-19T07:42:06.394Z,20.38
2023-04-19T07:44:34.575Z,21.44
2023-04-19T07:47:05.302Z,22.75
2023-04-19T07:49:34.559Z,24.35
2023-04-19T07:52:03.238Z,25.93
2023-04-19T07:54:32.412Z,27.07
2023-04-19T07:57:00.686Z,28.12
2023-04-19T07:59:29.486Z,29.20
2023-04-19T08:01:57.848Z,30.19
2023-04-19T08:04:26.611Z,31.16
2023-04-19T08:06:55.453Z,32.00
2023-04-19T08:09:23.771Z,32.76
2023-04-19T08:11:53.719Z,33.36
2023-04-19T08:14:34.839Z,34.08
2023-04-19T08:17:22.842Z,34.91
2023-04-19T08:19:54.115Z,35.31
2023-04-19T08:22:22.900Z,35.77
2023-04-19T08:24:54.086Z,36.36
2023-04-19T08:27:22.365Z,36.90
2023-04-19T08:29:50.921Z,37.16
2023-04-19T08:32:19.312Z,37.39
2023-04-19T08:34:47.801Z,37.70
2023-04-19T08:37:16.109Z,37.93
2023-04-19T08:39:44.460Z,38.03
2023-04-19T08:42:28.827Z,38.00
2023-04-19T08:45:25.969Z,38.06
2023-04-19T08:48:00.634Z,38.43
2023-04-19T08:50:35.946Z,38.55
2023-04-19T08:55:59.047Z,38.52
2023-04-19T09:01:05.150Z,38.85
2023-04-19T09:03:44.081Z,38.92
2023-04-19T09:06:16.159Z,39.14
2023-04-19T09:08:44.433Z,38.89
2023-04-19T09:11:12.782Z,39.02
2023-04-19T09:13:42.730Z,39.05
2023-04-19T09:16:24.568Z,38.68
2023-04-19T09:19:08.221Z,38.72
2023-04-19T09:21:44.013Z,38.43
2023-04-19T09:24:12.399Z,37.88
2023-04-19T09:26:40.489Z,37.85
2023-04-19T09:29:08.955Z,37.63
2023-04-19T09:31:50.500Z,37.33
2023-04-19T09:34:19.950Z,37.39
2023-04-19T09:36:52.491Z,37.44
2023-04-19T09:39:32.681Z,37.65
2023-04-19T09:42:02.294Z,37.57
2023-04-19T09:47:01.889Z,37.07
2023-04-19T09:49:46.011Z,37.14
2023-04-19T09:52:17.725Z,37.40
2023-04-19T09:54:46.272Z,37.27
2023-04-19T09:57:15.004Z,37.21
2023-04-19T09:59:43.063Z,37.27
2023-04-19T10:02:11.503Z,37.46
2023-04-19T10:04:59.642Z,37.39
2023-04-19T10:07:30.823Z,37.29
2023-04-19T10:12:52.386Z,37.37
2023-04-19T10:15:22.314Z,37.37
2023-04-19T10:17:50.499Z,37.50
2023-04-19T10:20:47.138Z,37.66
2023-04-19T10:23:15.264Z,37.74
2023-04-19T10:25:46.844Z,37.94
2023-04-19T10:28:18.201Z,38.04
2023-04-19T10:30:59.105Z,37.96
2023-04-19T10:33:32.284Z,38.04
2023-04-19T10:36:00.849Z,37.85
2023-04-19T10:41:59.682Z,37.68
2023-04-19T10:44:28.020Z,37.64
2023-04-19T10:46:56.186Z,37.54
2023-04-19T10:49:24.387Z,37.39
2023-04-19T10:51:55.035Z,37.40
2023-04-19T10:54:37.778Z,37.10
2023-04-19T10:57:06.937Z,36.92
2023-04-19T10:59:35.814Z,37.30
2023-04-19T11:02:25.284Z,37.24
2023-04-19T11:04:54.118Z,37.23
2023-04-19T11:07:22.588Z,37.72
2023-04-19T11:09:52.019Z,37.71
2023-04-19T11:12:21.486Z,37.85
2023-04-19T11:14:54.270Z,37.36
2023-04-19T11:17:27.915Z,37.39
2023-04-19T11:20:00.475Z,37.40
2023-04-19T11:22:36.354Z,37.16
2023-04-19T11:25:20.800Z,37.20
2023-04-19T11:27:53.255Z,37.34
2023-04-19T11:30:23.253Z,37.54
2023-04-19T11:32:55.950Z,37.65
2023-04-19T11:35:25.233Z,37.62
2023-04-19T11:37:54.108Z,37.71
2023-04-19T11:40:23.462Z,38.19
2023-04-19T11:42:56.140Z,38.32
2023-04-19T11:45:35.510Z,38.41
2023-04-19T11:48:05.955Z,38.47
2023-04-19T11:50:42.253Z,38.65
2023-04-19T11:53:16.861Z,38.97
2023-04-19T11:55:52.242Z,39.36
2023-04-19T11:58:29.164Z,39.50
2023-04-19T12:01:08.954Z,39.57
2023-04-19T12:03:56.810Z,39.49
2023-04-19T12:06:27.115Z,39.44
2023-04-19T12:08:56.161Z,39.48
2023-04-19T12:11:26.618Z,39.54
2023-04-19T12:14:15.734Z,39.74
2023-04-19T12:16:45.267Z,39.70
2023-04-19T12:19:14.760Z,39.83
2023-04-19T12:21:43.498Z,40.01
2023-04-19T12:24:12.487Z,40.32
2023-04-19T12:27:04.329Z,40.56
2023-04-19T12:29:35.367Z,40.87
2023-04-19T12:32:03.872Z,41.17
2023-04-19T12:34:32.348Z,41.62
2023-04-19T12:37:01.138Z,42.02
2023-04-19T12:39:32.787Z,42.41
2023-04-19T12:42:01.423Z,42.86
2023-04-19T12:44:29.704Z,43.36
2023-04-19T12:46:58.163Z,43.62
2023-04-19T12:49:26.540Z,44.00
2023-04-19T12:51:57.014Z,44.32
2023-04-19T12:54:25.541Z,44.53
2023-04-19T12:56:54.230Z,44.86
2023-04-19T12:59:22.501Z,45.19
2023-04-19T13:01:50.717Z,45.36
2023-04-19T13:04:19.414Z,45.40
2023-04-19T13:06:48.271Z,45.49
2023-04-19T13:09:16.449Z,45.60
2023-04-19T13:11:44.735Z,45.59
2023-04-19T13:14:13.104Z,45.79
2023-04-19T13:16:41.709Z,45.77
2023-04-19T13:19:09.780Z,45.96
2023-04-19T13:21:38.062Z,46.08
2023-04-19T13:24:08.822Z,46.26
2023-04-19T13:26:38.552Z,46.41
2023-04-19T13:29:08.570Z,46.76
2023-04-19T13:31:37.271Z,46.95
2023-04-19T13:34:08.171Z,47.05
2023-04-19T13:36:37.883Z,46.98
2023-04-19T13:39:08.159Z,46.80
2023-04-19T13:41:36.947Z,46.99
2023-04-19T13:44:05.190Z,47.17
2023-04-19T13:46:34.459Z,47.13
2023-04-19T13:49:02.551Z,46.78
2023-04-19T13:51:46.401Z,46.60
2023-04-19T13:54:18.806Z,46.64
2023-04-19T13:56:49.770Z,46.46
2023-04-19T13:59:19.699Z,46.43
2023-04-19T14:01:47.955Z,46.55
2023-04-19T14:04:16.355Z,46.92
2023-04-19T14:06:45.417Z,46.97
2023-04-19T14:09:13.917Z,47.15
2023-04-19T14:11:42.213Z,47.32
2023-04-19T14:14:10.649Z,47.11
2023-04-19T14:16:38.753Z,47.02
2023-04-19T14:19:10.710Z,47.17
2023-04-19T14:21:41.313Z,47.20
2023-04-19T14:24:09.368Z,47.00
2023-04-19T14:26:40.722Z,47.01
2023-04-19T14:29:08.947Z,46.91
2023-04-19T14:31:37.060Z,46.82
2023-04-19T14:34:05.136Z,46.61
2023-04-19T14:36:33.219Z,46.43
2023-04-19T14:39:01.547Z,46.31
2023-04-19T14:41:30.419Z,46.19
2023-04-19T14:43:58.818Z,45.85
2023-04-19T14:46:26.994Z,45.77
2023-04-19T14:48:55.059Z,45.95
2023-04-19T14:51:23.102Z,45.95
2023-04-19T14:53:51.140Z,45.75
2023-04-19T14:56:19.193Z,45.51
2023-04-19T14:58:48.104Z,45.56
2023-04-19T15:01:16.449Z,45.46
2023-04-19T15:03:46.598Z,45.41
2023-04-19T15:06:19.417Z,45.34
2023-04-19T15:08:47.861Z,45.09
2023-04-19T15:11:16.322Z,44.98
2023-04-19T15:13:44.501Z,44.54
2023-04-19T15:16:12.610Z,44.46
2023-04-19T15:18:41.212Z,44.40
2023-04-19T15:21:09.482Z,44.18
2023-04-19T15:23:37.587Z,44.30
2023-04-19T15:26:05.649Z,44.32
2023-04-19T15:28:36.219Z,44.22
2023-04-19T15:31:05.630Z,44.26
2023-04-19T15:33:35.602Z,43.87
2023-04-19T15:36:04.398Z,44.03
2023-04-19T15:38:32.990Z,44.18
2023-04-19T15:41:03.724Z,44.34
2023-04-19T15:43:32.006Z,44.47
2023-04-19T15:46:00.502Z,44.58
2023-04-19T15:48:29.284Z,44.58
2023-04-19T15:50:57.369Z,44.48
2023-04-19T15:53:25.549Z,44.37
2023-04-19T15:55:55.822Z,44.30
2023-04-19T15:58:24.422Z,44.33
2023-04-19T16:00:52.660Z,44.30
2023-04-19T16:03:21.146Z,44.48
2023-04-19T16:05:51.849Z,44.67
2023-04-19T16:08:20.133Z,44.68
2023-04-19T16:10:49.062Z,44.65
2023-04-19T16:13:17.654Z,44.68
2023-04-19T16:15:45.898Z,44.79
2023-04-19T16:18:14.314Z,44.96
2023-04-19T16:20:42.468Z,45.00
2023-04-19T16:23:14.849Z,45.15
2023-04-19T16:25:42.987Z,45.15
2023-04-19T16:28:11.305Z,45.30
2023-04-19T16:30:42.630Z,45.27
2023-04-19T16:33:11.485Z,45.32
2023-04-19T16:35:39.763Z,45.38
2023-04-19T16:38:14.835Z,45.37
2023-04-19T16:40:44.616Z,45.40
2023-04-19T16:43:12.695Z,45.45
2023-04-19T16:45:44.729Z,45.48
2023-04-19T16:48:12.850Z,45.43
2023-04-19T16:50:41.250Z,45.49
2023-04-19T16:53:09.343Z,45.70
2023-04-19T16:55:40.775Z,45.62
2023-04-19T16:58:08.851Z,45.52
2023-04-19T17:00:37.019Z,45.57
2023-04-19T17:03:08.164Z,45.55
2023-04-19T17:05:37.011Z,45.54
2023-04-19T17:08:05.412Z,45.66
2023-04-19T17:10:33.586Z,45.77
2023-04-19T17:13:01.640Z,45.95
2023-04-19T17:15:29.876Z,46.12
2023-04-19T17:17:57.989Z,46.29
2023-04-19T17:20:26.157Z,46.57
2023-04-19T17:22:54.183Z,46.84
2023-04-19T17:25:22.537Z,47.09
2023-04-19T17:27:51.125Z,47.11
2023-04-19T17:30:19.231Z,47.20
2023-04-19T17:32:47.411Z,47.19
2023-04-19T17:35:15.527Z,47.25
2023-04-19T17:37:43.830Z,47.45
2023-04-19T17:40:12.363Z,47.38
2023-04-19T17:42:43.179Z,47.22
2023-04-19T17:45:11.698Z,47.23
2023-04-19T17:47:40.038Z,46.86
2023-04-19T17:50:12.446Z,46.58
2023-04-19T17:52:43.155Z,46.25
2023-04-19T17:55:11.236Z,45.93
2023-04-19T17:57:40.200Z,45.92
2023-04-19T18:00:10.783Z,45.58
2023-04-19T18:02:40.897Z,45.10
2023-04-19T18:05:09.556Z,44.88
2023-04-19T18:07:37.963Z,44.61
2023-04-19T18:10:06.760Z,44.61
2023-04-19T18:12:36.734Z,44.74
2023-04-19T18:15:06.655Z,44.89
2023-04-19T18:17:35.922Z,45.17
2023-04-19T18:20:05.839Z,45.43
2023-04-19T18:22:34.110Z,45.44
2023-04-19T18:25:02.182Z,45.40
2023-04-19T18:27:32.454Z,45.49
2023-04-19T18:30:04.037Z,45.65
2023-04-19T18:32:33.690Z,45.82
2023-04-19T18:35:04.537Z,46.03
2023-04-19T18:37:46.904Z,46.31
2023-04-19T18:40:24.783Z,46.48
2023-04-19T18:42:52.876Z,46.78
2023-04-19T18:45:23.777Z,46.85
2023-04-19T18:47:55.359Z,46.82
2023-04-19T18:50:23.736Z,46.85
2023-04-19T18:52:51.928Z,47.00
2023-04-19T18:55:20.061Z,47.18
2023-04-19T18:57:48.146Z,47.33
2023-04-19T19:00:17.365Z,47.34
2023-04-19T19:02:46.266Z,47.27
2023-04-19T19:05:16.182Z,47.62
2023-04-19T19:07:45.585Z,47.82
2023-04-19T19:10:19.104Z,48.00
2023-04-19T19:12:50.442Z,48.13
2023-04-19T19:15:18.953Z,48.06
2023-04-19T19:17:49.911Z,48.10
2023-04-19T19:20:19.639Z,47.93
2023-04-19T19:22:48.543Z,48.02
2023-04-19T19:25:16.927Z,47.99
2023-04-19T19:28:04.961Z,48.01
2023-04-19T19:30:34.808Z,47.99
2023-04-19T19:33:05.053Z,48.01
2023-04-19T19:35:33.598Z,47.81
2023-04-19T19:38:01.795Z,47.82
2023-04-19T19:40:32.441Z,47.87
2023-04-19T19:43:01.257Z,48.02
2023-04-19T19:45:30.864Z,47.96
2023-04-19T19:48:00.012Z,47.74
2023-04-19T19:53:01.724Z,47.54
2023-04-19T19:55:30.474Z,47.51
2023-04-19T20:00:44.054Z,47.21
2023-04-19T20:03:13.536Z,47.06
2023-04-19T20:05:41.840Z,47.04
2023-04-19T20:08:11.950Z,47.00
2023-04-19T20:10:42.255Z,47.17
2023-04-19T20:13:13.254Z,47.27
2023-04-19T20:15:41.832Z,47.23
2023-04-19T20:18:09.828Z,47.27
2023-04-19T20:20:38.262Z,47.27
2023-04-19T20:23:06.422Z,47.23
2023-04-19T20:25:35.113Z,47.24
2023-04-19T20:28:03.613Z,47.30
2023-04-19T20:30:31.666Z,47.30
2023-04-19T20:32:59.885Z,47.26
2023-04-19T20:35:28.566Z,47.24
2023-04-19T20:38:02.837Z,47.06
2023-04-19T20:40:32.363Z,47.14
2023-04-19T20:43:01.093Z,47.02
2023-04-19T20:45:29.995Z,47.02
2023-04-19T20:47:58.823Z,46.82
2023-04-19T20:50:27.129Z,46.84
2023-04-19T20:52:56.790Z,46.75
2023-04-19T20:55:25.157Z,46.83
2023-04-19T20:57:53.525Z,46.81
2023-04-19T21:00:21.653Z,46.82
2023-04-19T21:02:50.081Z,46.84
2023-04-19T21:05:18.388Z,46.79
2023-04-19T21:07:46.846Z,46.88
2023-04-19T21:10:16.988Z,46.80
2023-04-19T21:12:45.349Z,46.79
2023-04-19T21:15:13.527Z,46.78
2023-04-19T21:17:41.888Z,46.96
2023-04-19T21:20:14.618Z,46.91
2023-04-19T21:22:43.530Z,46.78
2023-04-19T21:25:12.656Z,46.78
2023-04-19T21:27:41.691Z,46.66
2023-04-19T21:30:10.707Z,46.77
2023-04-19T21:32:38.960Z,46.78
2023-04-19T21:35:08.443Z,46.65
2023-04-19T21:37:37.100Z,46.57
2023-04-19T21:40:06.386Z,46.46
2023-04-19T21:42:35.725Z,46.42
2023-04-19T21:45:04.341Z,46.42
2023-04-19T21:47:32.893Z,46.38
2023-04-19T21:50:01.134Z,46.39
2023-04-19T21:52:29.845Z,46.28
2023-04-19T21:54:58.057Z,46.31
2023-04-19T21:57:27.192Z,46.43
2023-04-19T21:59:55.493Z,46.51
2023-04-19T22:02:23.985Z,46.52
2023-04-19T22:04:54.058Z,46.49
2023-04-19T22:07:24.128Z,46.61
2023-04-19T22:09:52.517Z,46.75
2023-04-19T22:12:20.852Z,46.79
2023-04-19T22:14:49.045Z,46.93
2023-04-19T22:17:18.813Z,46.95
2023-04-19T22:19:47.836Z,47.00
2023-04-19T22:22:15.905Z,47.06
2023-04-19T22:24:56.159Z,47.06
2023-04-19T22:27:25.842Z,47.17
2023-04-19T22:29:53.992Z,47.34
2023-04-19T22:32:22.282Z,47.36
2023-04-19T22:34:50.832Z,47.35
2023-04-19T22:37:18.967Z,47.39
2023-04-19T22:39:47.044Z,47.30
2023-04-19T22:42:15.088Z,47.31
2023-04-19T22:44:43.138Z,47.36
2023-04-19T22:47:12.010Z,47.33
2023-04-19T22:49:43.217Z,47.36
2023-04-19T22:52:11.967Z,47.41
2023-04-19T22:54:40.200Z,47.34
2023-04-19T22:57:08.383Z,47.69
2023-04-19T22:59:36.419Z,47.92
2023-04-19T23:02:04.539Z,48.09
2023-04-19T23:04:36.138Z,48.19
2023-04-19T23:07:04.511Z,48.17
2023-04-19T23:09:33.444Z,48.29
2023-04-19T23:12:01.494Z,48.20
2023-04-19T23:14:29.698Z,48.12
2023-04-19T23:16:57.775Z,48.13
2023-04-19T23:19:26.460Z,47.82
2023-04-19T23:21:54.514Z,47.43
2023-04-19T23:24:22.592Z,47.42
2023-04-19T23:26:50.828Z,47.15
2023-04-19T23:29:19.028Z,47.15
2023-04-19T23:31:47.306Z,47.11
2023-04-19T23:34:16.743Z,47.15
2023-04-19T23:36:44.905Z,47.03
2023-04-19T23:39:12.963Z,47.03
2023-04-19T23:41:40.969Z,47.18
2023-04-19T23:44:09.275Z,47.05
2023-04-19T23:46:37.373Z,47.02
2023-04-19T23:49:07.598Z,47.27
2023-04-19T23:51:36.502Z,47.21
2023-04-19T23:54:04.657Z,47.18
2023-04-19T23:56:33.522Z,47.07
2023-04-19T23:59:01.767Z,47.03
